sensor_id;sensor_type;location;lat;lon;timestamp;temperature;humidity
75994;DHT22;64680;53.800;9.988;2023-05-07T00:01:56;8.10;55.20
75994;DHT22;64680;53.800;9.988;2023-05-07T00:04:21;8.10;53.70
75994;DHT22;64680;53.800;9.988;2023-05-07T00:06:47;8.10;54.30
75994;DHT22;64680;53.800;9.988;2023-05-07T00:09:13;8.10;54.40
75994;DHT22;64680;53.800;9.988;2023-05-07T00:11:39;8.10;55.40
75994;DHT22;64680;53.800;9.988;2023-05-07T00:14:06;8.10;55.10
75994;DHT22;64680;53.800;9.988;2023-05-07T00:16:31;8.10;55.60
75994;DHT22;64680;53.800;9.988;2023-05-07T00:18:57;8.10;55.50
75994;DHT22;64680;53.800;9.988;2023-05-07T00:21:22;8.10;56.70
75994;DHT22;64680;53.800;9.988;2023-05-07T00:23:52;8.10;56.70
75994;DHT22;64680;53.800;9.988;2023-05-07T00:26:18;8.10;57.30
75994;DHT22;64680;53.800;9.988;2023-05-07T00:28:43;8.10;57.30
75994;DHT22;64680;53.800;9.988;2023-05-07T00:31:09;8.00;56.70
75994;DHT22;64680;53.800;9.988;2023-05-07T00:33:34;8.10;57.20
75994;DHT22;64680;53.800;9.988;2023-05-07T00:36:00;8.00;57.50
75994;DHT22;64680;53.800;9.988;2023-05-07T00:38:27;8.00;57.80
75994;DHT22;64680;53.800;9.988;2023-05-07T00:40:52;8.00;58.30
75994;DHT22;64680;53.800;9.988;2023-05-07T00:43:18;8.00;58.00
75994;DHT22;64680;53.800;9.988;2023-05-07T00:45:44;8.10;57.20
75994;DHT22;64680;53.800;9.988;2023-05-07T00:48:09;8.10;57.50
75994;DHT22;64680;53.800;9.988;2023-05-07T00:50:35;8.10;57.30
75994;DHT22;64680;53.800;9.988;2023-05-07T00:53:01;8.10;58.20
75994;DHT22;64680;53.800;9.988;2023-05-07T00:55:26;8.00;58.00
75994;DHT22;64680;53.800;9.988;2023-05-07T00:57:52;8.00;57.20
75994;DHT22;64680;53.800;9.988;2023-05-07T01:00:18;8.00;56.50
75994;DHT22;64680;53.800;9.988;2023-05-07T01:02:44;8.00;56.10
75994;DHT22;64680;53.800;9.988;2023-05-07T01:05:12;8.00;55.70
75994;DHT22;64680;53.800;9.988;2023-05-07T01:07:40;8.00;56.00
75994;DHT22;64680;53.800;9.988;2023-05-07T01:10:07;8.00;56.00
75994;DHT22;64680;53.800;9.988;2023-05-07T01:12:35;8.00;56.60
75994;DHT22;64680;53.800;9.988;2023-05-07T01:15:01;8.00;56.10
75994;DHT22;64680;53.800;9.988;2023-05-07T01:17:27;8.00;56.20
75994;DHT22;64680;53.800;9.988;2023-05-07T01:19:53;8.00;55.30
75994;DHT22;64680;53.800;9.988;2023-05-07T01:22:48;8.00;55.70
75994;DHT22;64680;53.800;9.988;2023-05-07T01:25:14;8.00;55.70
75994;DHT22;64680;53.800;9.988;2023-05-07T01:27:41;7.90;56.40
75994;DHT22;64680;53.800;9.988;2023-05-07T01:30:07;7.90;56.30
75994;DHT22;64680;53.800;9.988;2023-05-07T01:32:42;8.00;56.00
75994;DHT22;64680;53.800;9.988;2023-05-07T01:35:11;8.00;55.80
75994;DHT22;64680;53.800;9.988;2023-05-07T01:37:38;8.00;55.40
75994;DHT22;64680;53.800;9.988;2023-05-07T01:40:04;7.90;55.90
75994;DHT22;64680;53.800;9.988;2023-05-07T01:42:31;7.90;56.00
75994;DHT22;64680;53.800;9.988;2023-05-07T01:44:57;8.00;56.40
75994;DHT22;64680;53.800;9.988;2023-05-07T01:47:23;7.90;56.00
75994;DHT22;64680;53.800;9.988;2023-05-07T01:49:49;8.00;57.30
75994;DHT22;64680;53.800;9.988;2023-05-07T01:52:15;7.90;57.10
75994;DHT22;64680;53.800;9.988;2023-05-07T01:54:41;7.90;57.40
75994;DHT22;64680;53.800;9.988;2023-05-07T01:57:06;7.90;58.30
75994;DHT22;64680;53.800;9.988;2023-05-07T01:59:32;7.90;59.10
75994;DHT22;64680;53.800;9.988;2023-05-07T02:01:57;7.90;59.40
75994;DHT22;64680;53.800;9.988;2023-05-07T02:04:23;7.90;60.20
75994;DHT22;64680;53.800;9.988;2023-05-07T02:06:49;7.90;60.10
75994;DHT22;64680;53.800;9.988;2023-05-07T02:09:15;7.90;59.20
75994;DHT22;64680;53.800;9.988;2023-05-07T02:11:41;7.90;59.60
75994;DHT22;64680;53.800;9.988;2023-05-07T02:14:06;7.90;59.70
75994;DHT22;64680;53.800;9.988;2023-05-07T02:16:32;7.80;60.20
75994;DHT22;64680;53.800;9.988;2023-05-07T02:18:57;7.90;59.90
75994;DHT22;64680;53.800;9.988;2023-05-07T02:21:24;7.80;59.00
75994;DHT22;64680;53.800;9.988;2023-05-07T02:23:50;7.80;59.10
75994;DHT22;64680;53.800;9.988;2023-05-07T02:26:16;7.80;59.60
75994;DHT22;64680;53.800;9.988;2023-05-07T02:28:41;7.80;59.10
75994;DHT22;64680;53.800;9.988;2023-05-07T02:31:07;7.70;59.00
75994;DHT22;64680;53.800;9.988;2023-05-07T02:33:33;7.80;58.70
75994;DHT22;64680;53.800;9.988;2023-05-07T02:36:10;7.70;58.10
75994;DHT22;64680;53.800;9.988;2023-05-07T02:38:36;7.70;57.90
75994;DHT22;64680;53.800;9.988;2023-05-07T02:41:01;7.80;58.20
75994;DHT22;64680;53.800;9.988;2023-05-07T02:43:27;7.80;57.90
75994;DHT22;64680;53.800;9.988;2023-05-07T02:46:03;7.80;57.80
75994;DHT22;64680;53.800;9.988;2023-05-07T02:48:29;7.80;58.00
75994;DHT22;64680;53.800;9.988;2023-05-07T02:50:54;7.80;58.80
75994;DHT22;64680;53.800;9.988;2023-05-07T02:53:20;7.80;58.10
75994;DHT22;64680;53.800;9.988;2023-05-07T02:55:46;7.80;57.10
75994;DHT22;64680;53.800;9.988;2023-05-07T02:58:11;7.80;56.40
75994;DHT22;64680;53.800;9.988;2023-05-07T03:00:37;7.80;57.10
75994;DHT22;64680;53.800;9.988;2023-05-07T03:03:03;7.80;56.90
75994;DHT22;64680;53.800;9.988;2023-05-07T03:05:28;7.90;56.40
75994;DHT22;64680;53.800;9.988;2023-05-07T03:07:54;7.80;56.00
75994;DHT22;64680;53.800;9.988;2023-05-07T03:10:19;7.90;55.40
75994;DHT22;64680;53.800;9.988;2023-05-07T03:12:45;7.90;56.20
75994;DHT22;64680;53.800;9.988;2023-05-07T03:15:11;7.80;56.80
75994;DHT22;64680;53.800;9.988;2023-05-07T03:17:39;7.80;57.20
75994;DHT22;64680;53.800;9.988;2023-05-07T03:20:05;7.80;57.70
75994;DHT22;64680;53.800;9.988;2023-05-07T03:22:32;7.80;58.00
75994;DHT22;64680;53.800;9.988;2023-05-07T03:24:57;7.80;58.20
75994;DHT22;64680;53.800;9.988;2023-05-07T03:27:23;7.80;58.10
75994;DHT22;64680;53.800;9.988;2023-05-07T03:29:49;7.80;59.00
75994;DHT22;64680;53.800;9.988;2023-05-07T03:32:15;7.80;59.40
75994;DHT22;64680;53.800;9.988;2023-05-07T03:34:40;7.80;59.00
75994;DHT22;64680;53.800;9.988;2023-05-07T03:37:06;7.80;58.40
75994;DHT22;64680;53.800;9.988;2023-05-07T03:39:31;7.80;58.70
75994;DHT22;64680;53.800;9.988;2023-05-07T03:41:58;7.70;57.30
75994;DHT22;64680;53.800;9.988;2023-05-07T03:44:23;7.70;56.10
75994;DHT22;64680;53.800;9.988;2023-05-07T03:46:49;7.70;55.30
75994;DHT22;64680;53.800;9.988;2023-05-07T03:49:14;7.70;54.40
75994;DHT22;64680;53.800;9.988;2023-05-07T03:51:40;7.80;54.00
75994;DHT22;64680;53.800;9.988;2023-05-07T03:54:06;7.80;52.50
75994;DHT22;64680;53.800;9.988;2023-05-07T03:56:31;7.80;52.50
75994;DHT22;64680;53.800;9.988;2023-05-07T03:58:57;7.80;51.90
75994;DHT22;64680;53.800;9.988;2023-05-07T04:01:22;7.80;52.00
75994;DHT22;64680;53.800;9.988;2023-05-07T04:03:48;7.80;52.40
75994;DHT22;64680;53.800;9.988;2023-05-07T04:06:15;7.80;54.20
75994;DHT22;64680;53.800;9.988;2023-05-07T04:08:41;7.80;53.90
75994;DHT22;64680;53.800;9.988;2023-05-07T04:11:07;7.80;52.10
75994;DHT22;64680;53.800;9.988;2023-05-07T04:13:33;7.80;51.60
75994;DHT22;64680;53.800;9.988;2023-05-07T04:16:00;7.80;51.30
75994;DHT22;64680;53.800;9.988;2023-05-07T04:18:26;7.80;50.90
75994;DHT22;64680;53.800;9.988;2023-05-07T04:20:51;7.80;51.70
75994;DHT22;64680;53.800;9.988;2023-05-07T04:23:17;7.80;51.80
75994;DHT22;64680;53.800;9.988;2023-05-07T04:25:43;7.90;49.80
75994;DHT22;64680;53.800;9.988;2023-05-07T04:28:08;7.90;49.40
75994;DHT22;64680;53.800;9.988;2023-05-07T04:30:34;7.90;49.70
75994;DHT22;64680;53.800;9.988;2023-05-07T04:33:00;7.90;49.50
75994;DHT22;64680;53.800;9.988;2023-05-07T04:35:26;7.90;49.30
75994;DHT22;64680;53.800;9.988;2023-05-07T04:37:51;7.90;50.30
75994;DHT22;64680;53.800;9.988;2023-05-07T04:40:17;7.90;51.10
75994;DHT22;64680;53.800;9.988;2023-05-07T04:42:43;7.90;49.60
75994;DHT22;64680;53.800;9.988;2023-05-07T04:45:09;7.90;49.40
75994;DHT22;64680;53.800;9.988;2023-05-07T04:47:35;7.90;49.40
75994;DHT22;64680;53.800;9.988;2023-05-07T04:50:02;7.90;49.10
75994;DHT22;64680;53.800;9.988;2023-05-07T04:52:27;7.90;49.40
75994;DHT22;64680;53.800;9.988;2023-05-07T04:54:53;7.90;49.60
75994;DHT22;64680;53.800;9.988;2023-05-07T04:57:18;7.90;50.80
75994;DHT22;64680;53.800;9.988;2023-05-07T04:59:44;7.90;50.80
75994;DHT22;64680;53.800;9.988;2023-05-07T05:02:10;7.90;51.90
75994;DHT22;64680;53.800;9.988;2023-05-07T05:04:36;7.90;51.40
75994;DHT22;64680;53.800;9.988;2023-05-07T05:07:02;7.90;52.30
75994;DHT22;64680;53.800;9.988;2023-05-07T05:09:29;7.90;52.00
75994;DHT22;64680;53.800;9.988;2023-05-07T05:11:55;7.90;52.90
75994;DHT22;64680;53.800;9.988;2023-05-07T05:14:21;7.90;52.20
75994;DHT22;64680;53.800;9.988;2023-05-07T05:16:46;7.90;52.70
75994;DHT22;64680;53.800;9.988;2023-05-07T05:19:12;7.90;53.70
75994;DHT22;64680;53.800;9.988;2023-05-07T05:21:37;7.90;53.70
75994;DHT22;64680;53.800;9.988;2023-05-07T05:24:03;8.00;53.10
75994;DHT22;64680;53.800;9.988;2023-05-07T05:26:29;8.00;52.70
75994;DHT22;64680;53.800;9.988;2023-05-07T05:28:54;8.00;51.80
75994;DHT22;64680;53.800;9.988;2023-05-07T05:31:20;8.00;51.90
75994;DHT22;64680;53.800;9.988;2023-05-07T05:33:46;8.00;52.20
75994;DHT22;64680;53.800;9.988;2023-05-07T05:36:12;8.10;52.90
75994;DHT22;64680;53.800;9.988;2023-05-07T05:38:39;8.10;52.60
75994;DHT22;64680;53.800;9.988;2023-05-07T05:41:05;8.10;51.50
75994;DHT22;64680;53.800;9.988;2023-05-07T05:43:30;8.10;49.50
75994;DHT22;64680;53.800;9.988;2023-05-07T05:45:56;8.10;50.40
75994;DHT22;64680;53.800;9.988;2023-05-07T05:48:23;8.10;50.10
75994;DHT22;64680;53.800;9.988;2023-05-07T05:50:48;8.20;49.60
75994;DHT22;64680;53.800;9.988;2023-05-07T05:53:14;8.10;49.40
75994;DHT22;64680;53.800;9.988;2023-05-07T05:55:41;8.20;49.10
75994;DHT22;64680;53.800;9.988;2023-05-07T05:58:07;8.20;48.60
75994;DHT22;64680;53.800;9.988;2023-05-07T06:00:33;8.30;47.70
75994;DHT22;64680;53.800;9.988;2023-05-07T06:02:58;8.30;46.40
75994;DHT22;64680;53.800;9.988;2023-05-07T06:05:24;8.30;46.70
75994;DHT22;64680;53.800;9.988;2023-05-07T06:07:50;8.40;47.60
75994;DHT22;64680;53.800;9.988;2023-05-07T06:10:15;8.30;46.20
75994;DHT22;64680;53.800;9.988;2023-05-07T06:12:41;8.50;45.20
75994;DHT22;64680;53.800;9.988;2023-05-07T06:15:07;8.50;44.40
75994;DHT22;64680;53.800;9.988;2023-05-07T06:17:33;8.60;44.20
75994;DHT22;64680;53.800;9.988;2023-05-07T06:19:59;8.60;42.80
75994;DHT22;64680;53.800;9.988;2023-05-07T06:22:26;8.60;42.90
75994;DHT22;64680;53.800;9.988;2023-05-07T06:24:51;8.70;42.20
75994;DHT22;64680;53.800;9.988;2023-05-07T06:27:17;8.80;41.20
75994;DHT22;64680;53.800;9.988;2023-05-07T06:29:43;8.80;42.00
75994;DHT22;64680;53.800;9.988;2023-05-07T06:32:12;8.90;39.30
75994;DHT22;64680;53.800;9.988;2023-05-07T06:34:39;8.90;39.40
75994;DHT22;64680;53.800;9.988;2023-05-07T06:37:05;8.90;39.50
75994;DHT22;64680;53.800;9.988;2023-05-07T06:39:31;8.90;39.90
75994;DHT22;64680;53.800;9.988;2023-05-07T06:41:57;8.90;38.30
75994;DHT22;64680;53.800;9.988;2023-05-07T06:44:23;9.00;38.10
75994;DHT22;64680;53.800;9.988;2023-05-07T06:46:49;9.00;36.00
75994;DHT22;64680;53.800;9.988;2023-05-07T06:49:15;8.90;32.90
75994;DHT22;64680;53.800;9.988;2023-05-07T06:51:40;8.90;33.90
75994;DHT22;64680;53.800;9.988;2023-05-07T06:54:06;9.00;33.90
75994;DHT22;64680;53.800;9.988;2023-05-07T06:56:32;9.00;34.10
75994;DHT22;64680;53.800;9.988;2023-05-07T06:59:00;9.00;35.20
75994;DHT22;64680;53.800;9.988;2023-05-07T07:01:26;9.10;35.70
75994;DHT22;64680;53.800;9.988;2023-05-07T07:03:52;9.10;34.80
75994;DHT22;64680;53.800;9.988;2023-05-07T07:06:17;9.30;32.30
75994;DHT22;64680;53.800;9.988;2023-05-07T07:08:43;9.30;32.10
75994;DHT22;64680;53.800;9.988;2023-05-07T07:11:10;9.50;33.60
75994;DHT22;64680;53.800;9.988;2023-05-07T07:13:36;9.60;31.70
75994;DHT22;64680;53.800;9.988;2023-05-07T07:16:02;9.70;30.10
75994;DHT22;64680;53.800;9.988;2023-05-07T07:18:28;9.70;26.90
75994;DHT22;64680;53.800;9.988;2023-05-07T07:20:54;9.90;29.10
75994;DHT22;64680;53.800;9.988;2023-05-07T07:23:19;9.90;25.90
75994;DHT22;64680;53.800;9.988;2023-05-07T07:25:45;9.80;26.80
75994;DHT22;64680;53.800;9.988;2023-05-07T07:28:11;9.90;26.50
75994;DHT22;64680;53.800;9.988;2023-05-07T07:30:37;9.80;23.50
75994;DHT22;64680;53.800;9.988;2023-05-07T07:33:03;9.80;25.90
75994;DHT22;64680;53.800;9.988;2023-05-07T07:35:29;9.80;26.50
75994;DHT22;64680;53.800;9.988;2023-05-07T07:37:55;9.80;26.50
75994;DHT22;64680;53.800;9.988;2023-05-07T07:40:21;9.90;28.40
75994;DHT22;64680;53.800;9.988;2023-05-07T07:42:47;10.00;26.00
75994;DHT22;64680;53.800;9.988;2023-05-07T07:45:13;10.00;27.40
75994;DHT22;64680;53.800;9.988;2023-05-07T07:47:39;10.00;25.50
75994;DHT22;64680;53.800;9.988;2023-05-07T07:50:06;10.00;24.60
75994;DHT22;64680;53.800;9.988;2023-05-07T07:52:32;10.00;26.20
75994;DHT22;64680;53.800;9.988;2023-05-07T07:54:58;10.10;24.60
75994;DHT22;64680;53.800;9.988;2023-05-07T07:57:24;10.10;25.90
75994;DHT22;64680;53.800;9.988;2023-05-07T07:59:50;10.10;23.00
75994;DHT22;64680;53.800;9.988;2023-05-07T08:02:16;10.10;23.70
75994;DHT22;64680;53.800;9.988;2023-05-07T08:04:42;10.30;23.80
75994;DHT22;64680;53.800;9.988;2023-05-07T08:07:12;10.20;22.50
75994;DHT22;64680;53.800;9.988;2023-05-07T08:09:38;10.20;23.60
75994;DHT22;64680;53.800;9.988;2023-05-07T08:12:05;10.30;24.80
75994;DHT22;64680;53.800;9.988;2023-05-07T08:14:30;10.40;25.20
75994;DHT22;64680;53.800;9.988;2023-05-07T08:16:56;10.40;21.90
75994;DHT22;64680;53.800;9.988;2023-05-07T08:19:22;10.50;21.60
75994;DHT22;64680;53.800;9.988;2023-05-07T08:21:47;10.50;22.00
75994;DHT22;64680;53.800;9.988;2023-05-07T08:24:14;10.60;21.50
75994;DHT22;64680;53.800;9.988;2023-05-07T08:26:40;10.60;21.40
75994;DHT22;64680;53.800;9.988;2023-05-07T08:29:06;10.80;19.10
75994;DHT22;64680;53.800;9.988;2023-05-07T08:31:32;10.70;18.60
75994;DHT22;64680;53.800;9.988;2023-05-07T08:33:58;10.90;20.90
75994;DHT22;64680;53.800;9.988;2023-05-07T08:36:24;10.80;14.50
75994;DHT22;64680;53.800;9.988;2023-05-07T08:38:51;10.80;17.20
75994;DHT22;64680;53.800;9.988;2023-05-07T08:41:16;10.90;17.30
75994;DHT22;64680;53.800;9.988;2023-05-07T08:43:44;10.80;14.70
75994;DHT22;64680;53.800;9.988;2023-05-07T08:46:16;10.80;14.30
75994;DHT22;64680;53.800;9.988;2023-05-07T08:48:42;10.90;12.20
75994;DHT22;64680;53.800;9.988;2023-05-07T08:51:11;11.00;10.20
75994;DHT22;64680;53.800;9.988;2023-05-07T08:53:40;11.00;10.20
75994;DHT22;64680;53.800;9.988;2023-05-07T08:56:08;11.00;10.20
75994;DHT22;64680;53.800;9.988;2023-05-07T08:58:34;11.10;10.60
75994;DHT22;64680;53.800;9.988;2023-05-07T09:01:22;11.10;8.30
75994;DHT22;64680;53.800;9.988;2023-05-07T09:03:49;11.10;8.50
75994;DHT22;64680;53.800;9.988;2023-05-07T09:06:15;11.10;4.10
75994;DHT22;64680;53.800;9.988;2023-05-07T09:08:43;11.20;2.80
75994;DHT22;64680;53.800;9.988;2023-05-07T09:11:09;11.30;1.00
75994;DHT22;64680;53.800;9.988;2023-05-07T09:13:36;11.30;1.00
75994;DHT22;64680;53.800;9.988;2023-05-07T09:16:12;11.40;1.00
75994;DHT22;64680;53.800;9.988;2023-05-07T09:18:42;11.60;1.70
75994;DHT22;64680;53.800;9.988;2023-05-07T09:21:14;11.40;1.00
75994;DHT22;64680;53.800;9.988;2023-05-07T09:23:40;11.30;1.00
75994;DHT22;64680;53.800;9.988;2023-05-07T09:26:06;11.20;1.00
75994;DHT22;64680;53.800;9.988;2023-05-07T09:28:38;11.10;1.00
75994;DHT22;64680;53.800;9.988;2023-05-07T09:31:04;11.30;1.00
75994;DHT22;64680;53.800;9.988;2023-05-07T09:33:30;11.30;1.00
75994;DHT22;64680;53.800;9.988;2023-05-07T09:35:56;11.20;1.00
75994;DHT22;64680;53.800;9.988;2023-05-07T09:38:21;11.20;1.00
75994;DHT22;64680;53.800;9.988;2023-05-07T09:40:48;11.20;1.00
75994;DHT22;64680;53.800;9.988;2023-05-07T09:43:26;11.20;1.00
75994;DHT22;64680;53.800;9.988;2023-05-07T09:45:57;11.10;1.00
75994;DHT22;64680;53.800;9.988;2023-05-07T09:48:25;11.40;1.00
75994;DHT22;64680;53.800;9.988;2023-05-07T09:50:52;11.40;1.00
75994;DHT22;64680;53.800;9.988;2023-05-07T09:53:20;11.50;1.00
75994;DHT22;64680;53.800;9.988;2023-05-07T09:55:47;11.50;1.00
75994;DHT22;64680;53.800;9.988;2023-05-07T09:58:13;11.50;1.00
75994;DHT22;64680;53.800;9.988;2023-05-07T10:00:40;11.70;1.00
75994;DHT22;64680;53.800;9.988;2023-05-07T10:03:08;11.70;1.00
75994;DHT22;64680;53.800;9.988;2023-05-07T10:05:34;12.00;1.00
75994;DHT22;64680;53.800;9.988;2023-05-07T10:08:00;12.40;1.00
75994;DHT22;64680;53.800;9.988;2023-05-07T10:10:27;12.50;1.00
75994;DHT22;64680;53.800;9.988;2023-05-07T10:12:54;12.50;1.00
75994;DHT22;64680;53.800;9.988;2023-05-07T10:15:20;12.60;1.00
75994;DHT22;64680;53.800;9.988;2023-05-07T10:17:46;13.00;1.00
75994;DHT22;64680;53.800;9.988;2023-05-07T10:20:13;13.20;1.00
75994;DHT22;64680;53.800;9.988;2023-05-07T10:22:41;13.40;1.00
75994;DHT22;64680;53.800;9.988;2023-05-07T10:25:22;13.40;1.00
75994;DHT22;64680;53.800;9.988;2023-05-07T10:27:50;13.30;1.00
75994;DHT22;64680;53.800;9.988;2023-05-07T10:33:17;13.50;1.00
75994;DHT22;64680;53.800;9.988;2023-05-07T10:35:46;13.50;1.00
75994;DHT22;64680;53.800;9.988;2023-05-07T10:38:13;13.50;1.00
75994;DHT22;64680;53.800;9.988;2023-05-07T10:40:39;14.00;1.00
75994;DHT22;64680;53.800;9.988;2023-05-07T10:43:05;14.60;1.00
75994;DHT22;64680;53.800;9.988;2023-05-07T10:45:31;14.90;1.00
75994;DHT22;64680;53.800;9.988;2023-05-07T10:48:13;15.10;1.00
75994;DHT22;64680;53.800;9.988;2023-05-07T10:50:40;15.10;1.00
75994;DHT22;64680;53.800;9.988;2023-05-07T10:58:36;15.50;1.00
75994;DHT22;64680;53.800;9.988;2023-05-07T11:01:03;15.30;1.00
75994;DHT22;64680;53.800;9.988;2023-05-07T11:03:29;15.60;1.00
75994;DHT22;64680;53.800;9.988;2023-05-07T11:09:04;15.80;1.00
75994;DHT22;64680;53.800;9.988;2023-05-07T11:11:49;15.70;1.00
75994;DHT22;64680;53.800;9.988;2023-05-07T11:17:07;16.20;1.00
75994;DHT22;64680;53.800;9.988;2023-05-07T11:19:49;15.90;1.00
75994;DHT22;64680;53.800;9.988;2023-05-07T11:24:59;15.10;1.00
75994;DHT22;64680;53.800;9.988;2023-05-07T11:27:26;15.80;1.00
75994;DHT22;64680;53.800;9.988;2023-05-07T11:29:51;16.50;1.00
75994;DHT22;64680;53.800;9.988;2023-05-07T11:32:24;17.20;1.00
75994;DHT22;64680;53.800;9.988;2023-05-07T11:34:57;17.30;1.00
75994;DHT22;64680;53.800;9.988;2023-05-07T11:37:24;17.60;1.00
75994;DHT22;64680;53.800;9.988;2023-05-07T11:39:50;17.90;1.00
75994;DHT22;64680;53.800;9.988;2023-05-07T11:42:28;17.90;1.00
75994;DHT22;64680;53.800;9.988;2023-05-07T11:44:53;18.00;1.00
75994;DHT22;64680;53.800;9.988;2023-05-07T11:47:22;17.70;1.00
75994;DHT22;64680;53.800;9.988;2023-05-07T11:49:50;17.60;1.00
75994;DHT22;64680;53.800;9.988;2023-05-07T11:52:16;17.70;1.00
75994;DHT22;64680;53.800;9.988;2023-05-07T11:54:49;17.40;1.00
75994;DHT22;64680;53.800;9.988;2023-05-07T11:57:15;16.90;1.00
75994;DHT22;64680;53.800;9.988;2023-05-07T11:59:40;17.30;1.00
75994;DHT22;64680;53.800;9.988;2023-05-07T12:02:07;18.00;1.00
75994;DHT22;64680;53.800;9.988;2023-05-07T12:04:33;18.10;1.00
75994;DHT22;64680;53.800;9.988;2023-05-07T12:06:59;18.10;1.00
75994;DHT22;64680;53.800;9.988;2023-05-07T12:09:25;18.10;1.00
75994;DHT22;64680;53.800;9.988;2023-05-07T12:11:52;17.90;1.00
75994;DHT22;64680;53.800;9.988;2023-05-07T12:14:18;17.70;1.00
75994;DHT22;64680;53.800;9.988;2023-05-07T12:16:44;17.70;1.00
75994;DHT22;64680;53.800;9.988;2023-05-07T12:19:10;17.60;1.00
75994;DHT22;64680;53.800;9.988;2023-05-07T12:21:38;17.80;1.00
75994;DHT22;64680;53.800;9.988;2023-05-07T12:24:05;18.00;1.00
75994;DHT22;64680;53.800;9.988;2023-05-07T12:26:31;18.20;1.00
75994;DHT22;64680;53.800;9.988;2023-05-07T12:28:59;18.00;1.00
75994;DHT22;64680;53.800;9.988;2023-05-07T12:31:26;18.10;1.00
75994;DHT22;64680;53.800;9.988;2023-05-07T12:33:51;17.70;1.00
75994;DHT22;64680;53.800;9.988;2023-05-07T12:36:17;17.50;1.00
75994;DHT22;64680;53.800;9.988;2023-05-07T12:38:43;17.60;1.00
75994;DHT22;64680;53.800;9.988;2023-05-07T12:41:10;17.60;1.00
75994;DHT22;64680;53.800;9.988;2023-05-07T12:43:36;17.70;1.00
75994;DHT22;64680;53.800;9.988;2023-05-07T12:46:04;17.40;1.00
75994;DHT22;64680;53.800;9.988;2023-05-07T12:48:31;17.70;1.00
75994;DHT22;64680;53.800;9.988;2023-05-07T12:50:58;17.70;1.00
75994;DHT22;64680;53.800;9.988;2023-05-07T12:53:26;17.40;1.00
75994;DHT22;64680;53.800;9.988;2023-05-07T12:55:54;17.10;1.00
75994;DHT22;64680;53.800;9.988;2023-05-07T12:58:26;17.50;1.00
75994;DHT22;64680;53.800;9.988;2023-05-07T13:00:53;17.70;1.00
75994;DHT22;64680;53.800;9.988;2023-05-07T13:05:48;17.60;1.00
75994;DHT22;64680;53.800;9.988;2023-05-07T13:08:23;17.50;1.00
75994;DHT22;64680;53.800;9.988;2023-05-07T13:10:49;17.50;1.00
75994;DHT22;64680;53.800;9.988;2023-05-07T13:13:15;17.60;1.00
75994;DHT22;64680;53.800;9.988;2023-05-07T13:15:40;17.60;1.00
75994;DHT22;64680;53.800;9.988;2023-05-07T13:18:06;17.70;1.00
75994;DHT22;64680;53.800;9.988;2023-05-07T13:20:32;17.50;1.00
75994;DHT22;64680;53.800;9.988;2023-05-07T13:22:57;17.40;1.00
75994;DHT22;64680;53.800;9.988;2023-05-07T13:25:23;17.50;1.00
75994;DHT22;64680;53.800;9.988;2023-05-07T13:27:49;17.70;1.00
75994;DHT22;64680;53.800;9.988;2023-05-07T13:30:15;17.90;1.00
75994;DHT22;64680;53.800;9.988;2023-05-07T13:32:40;18.40;1.00
75994;DHT22;64680;53.800;9.988;2023-05-07T13:35:07;18.70;1.00
75994;DHT22;64680;53.800;9.988;2023-05-07T13:37:32;18.50;1.00
75994;DHT22;64680;53.800;9.988;2023-05-07T13:39:58;18.10;1.00
75994;DHT22;64680;53.800;9.988;2023-05-07T13:42:24;17.90;1.00
75994;DHT22;64680;53.800;9.988;2023-05-07T13:44:49;17.90;1.00
75994;DHT22;64680;53.800;9.988;2023-05-07T13:47:15;18.20;1.00
75994;DHT22;64680;53.800;9.988;2023-05-07T13:49:41;18.20;1.00
75994;DHT22;64680;53.800;9.988;2023-05-07T13:52:06;18.20;1.00
75994;DHT22;64680;53.800;9.988;2023-05-07T13:54:32;18.50;1.00
75994;DHT22;64680;53.800;9.988;2023-05-07T13:56:57;18.60;1.00
75994;DHT22;64680;53.800;9.988;2023-05-07T13:59:23;18.90;1.00
75994;DHT22;64680;53.800;9.988;2023-05-07T14:01:48;18.90;1.00
75994;DHT22;64680;53.800;9.988;2023-05-07T14:04:14;18.50;1.00
75994;DHT22;64680;53.800;9.988;2023-05-07T14:06:40;18.40;1.00
75994;DHT22;64680;53.800;9.988;2023-05-07T14:09:06;18.50;1.00
75994;DHT22;64680;53.800;9.988;2023-05-07T14:11:31;18.50;1.00
75994;DHT22;64680;53.800;9.988;2023-05-07T14:13:57;18.40;1.00
75994;DHT22;64680;53.800;9.988;2023-05-07T14:16:23;18.40;1.00
75994;DHT22;64680;53.800;9.988;2023-05-07T14:18:49;18.50;1.00
75994;DHT22;64680;53.800;9.988;2023-05-07T14:21:14;18.40;1.00
75994;DHT22;64680;53.800;9.988;2023-05-07T14:23:40;18.30;1.00
75994;DHT22;64680;53.800;9.988;2023-05-07T14:26:05;18.20;1.00
75994;DHT22;64680;53.800;9.988;2023-05-07T14:28:31;18.30;1.00
75994;DHT22;64680;53.800;9.988;2023-05-07T14:30:57;18.10;1.00
75994;DHT22;64680;53.800;9.988;2023-05-07T14:33:22;18.30;1.00
75994;DHT22;64680;53.800;9.988;2023-05-07T14:35:48;18.30;1.00
75994;DHT22;64680;53.800;9.988;2023-05-07T14:38:15;18.40;1.00
75994;DHT22;64680;53.800;9.988;2023-05-07T14:40:41;18.20;1.00
75994;DHT22;64680;53.800;9.988;2023-05-07T14:43:06;18.30;1.00
75994;DHT22;64680;53.800;9.988;2023-05-07T14:45:32;18.30;1.00
75994;DHT22;64680;53.800;9.988;2023-05-07T14:47:57;18.40;1.00
75994;DHT22;64680;53.800;9.988;2023-05-07T14:50:23;18.60;1.00
75994;DHT22;64680;53.800;9.988;2023-05-07T14:52:49;18.40;1.00
75994;DHT22;64680;53.800;9.988;2023-05-07T14:55:14;18.00;1.00
75994;DHT22;64680;53.800;9.988;2023-05-07T14:57:40;17.80;1.00
75994;DHT22;64680;53.800;9.988;2023-05-07T15:00:06;17.60;1.00
75994;DHT22;64680;53.800;9.988;2023-05-07T15:02:32;17.30;1.00
75994;DHT22;64680;53.800;9.988;2023-05-07T15:04:59;16.90;1.00
75994;DHT22;64680;53.800;9.988;2023-05-07T15:07:24;16.70;1.00
75994;DHT22;64680;53.800;9.988;2023-05-07T15:09:50;16.50;1.00
75994;DHT22;64680;53.800;9.988;2023-05-07T15:12:16;16.20;1.00
75994;DHT22;64680;53.800;9.988;2023-05-07T15:14:42;16.10;1.00
75994;DHT22;64680;53.800;9.988;2023-05-07T15:17:08;15.80;1.00
75994;DHT22;64680;53.800;9.988;2023-05-07T15:19:33;15.70;1.00
75994;DHT22;64680;53.800;9.988;2023-05-07T15:21:59;15.50;1.00
75994;DHT22;64680;53.800;9.988;2023-05-07T15:24:28;15.50;1.00
75994;DHT22;64680;53.800;9.988;2023-05-07T15:26:54;15.50;1.00
75994;DHT22;64680;53.800;9.988;2023-05-07T15:29:20;15.60;1.00
75994;DHT22;64680;53.800;9.988;2023-05-07T15:31:46;15.60;1.00
75994;DHT22;64680;53.800;9.988;2023-05-07T15:34:12;15.60;1.00
75994;DHT22;64680;53.800;9.988;2023-05-07T15:36:40;15.60;1.00
75994;DHT22;64680;53.800;9.988;2023-05-07T15:39:06;15.70;1.00
75994;DHT22;64680;53.800;9.988;2023-05-07T15:41:31;15.70;1.00
75994;DHT22;64680;53.800;9.988;2023-05-07T15:43:57;15.70;1.00
75994;DHT22;64680;53.800;9.988;2023-05-07T15:46:24;15.70;1.00
75994;DHT22;64680;53.800;9.988;2023-05-07T15:48:50;15.60;1.00
75994;DHT22;64680;53.800;9.988;2023-05-07T15:51:16;15.50;1.00
75994;DHT22;64680;53.800;9.988;2023-05-07T15:53:45;15.40;1.00
75994;DHT22;64680;53.800;9.988;2023-05-07T15:56:11;15.30;1.00
75994;DHT22;64680;53.800;9.988;2023-05-07T15:58:37;15.20;1.00
75994;DHT22;64680;53.800;9.988;2023-05-07T16:01:03;15.20;1.00